Time;durP1;ratioP1;P1;durP2;ratioP2;P2;SDS_P1;SDS_P2;PMS_P1;PMS_P2;Temp;Humidity;BMP_temperature;BMP_pressure;BME280_temperature;BME280_humidity;BME280_pressure;Samples;Min_cycle;Max_cycle;Signal;HPM_P1;HPM_P2
2021/07/06 00:00:01;;;;;;;5.53;4.03;;;;;;;21.84;79.03;99136.77;1659481;86;21564;-77
2021/07/06 00:02:30;;;;;;;5.65;4.72;;;;;;;21.82;79.16;99133.59;1649205;86;21038;-75
2021/07/06 00:05:00;;;;;;;6.05;4.78;;;;;;;21.80;79.45;99133.11;1650836;87;21108;-76
2021/07/06 00:07:27;;;;;;;5.42;4.75;;;;;;;21.80;79.23;99131.75;1664996;85;21106;-75
2021/07/06 00:09:56;;;;;;;6.85;5.28;;;;;;;21.76;79.37;99141.21;1638590;87;21171;-77
2021/07/06 00:12:25;;;;;;;6.00;4.53;;;;;;;21.71;79.34;99144.96;1650414;87;21090;-74
2021/07/06 00:14:52;;;;;;;7.90;5.08;;;;;;;21.60;79.94;99151.98;1650916;87;21033;-77
2021/07/06 00:17:19;;;;;;;7.55;4.25;;;;;;;21.51;80.44;99151.81;1659185;86;21028;-76
2021/07/06 00:19:50;;;;;;;5.80;5.10;;;;;;;21.49;80.83;99154.08;1652584;86;21516;-75
2021/07/06 00:22:17;;;;;;;11.85;5.60;;;;;;;21.54;81.28;99153.88;1651185;86;22421;-77
2021/07/06 00:24:45;;;;;;;5.30;4.80;;;;;;;21.60;80.97;99146.50;1650869;87;21180;-78
2021/07/06 00:27:12;;;;;;;7.25;5.22;;;;;;;21.66;80.70;99147.10;1653244;86;21034;-77
2021/07/06 00:29:39;;;;;;;5.75;4.95;;;;;;;21.67;80.26;99150.08;1653813;86;21587;-78
2021/07/06 00:32:07;;;;;;;9.23;5.22;;;;;;;21.63;80.35;99154.03;1637578;86;21022;-75
2021/07/06 00:34:34;;;;;;;6.72;5.37;;;;;;;21.57;80.45;99154.59;1624387;88;21872;-78
2021/07/06 00:37:02;;;;;;;5.83;5.22;;;;;;;21.66;79.74;99156.68;1640117;86;21026;-75
2021/07/06 00:39:31;;;;;;;4.92;3.98;;;;;;;21.64;79.32;99151.53;1647564;85;21015;-77
2021/07/06 00:41:58;;;;;;;6.35;4.37;;;;;;;21.63;79.41;99156.77;1651163;85;21531;-76
2021/07/06 00:44:25;;;;;;;5.00;4.55;;;;;;;21.67;79.76;99167.87;1650967;87;21107;-77
2021/07/06 00:46:53;;;;;;;7.40;4.55;;;;;;;21.69;79.22;99168.31;1655463;86;21227;-78
2021/07/06 00:49:20;;;;;;;8.05;5.08;;;;;;;21.68;79.20;99159.30;1662512;86;21072;-79
2021/07/06 00:51:47;;;;;;;4.67;4.28;;;;;;;21.70;79.26;99163.08;1662898;86;21076;-81
2021/07/06 00:54:14;;;;;;;6.47;5.83;;;;;;;21.68;79.19;99171.62;1662829;86;21501;-78
2021/07/06 00:56:41;;;;;;;12.13;5.83;;;;;;;21.66;79.06;99167.06;1659842;86;21011;-77
2021/07/06 00:59:08;;;;;;;7.28;4.55;;;;;;;21.63;79.34;99165.57;1652196;86;21144;-76
2021/07/06 01:01:35;;;;;;;7.15;4.90;;;;;;;21.61;79.18;99162.36;1653104;86;21539;-77
2021/07/06 01:04:03;;;;;;;7.58;5.37;;;;;;;21.42;80.18;99162.03;1679345;84;20916;-76
2021/07/06 01:06:31;;;;;;;12.60;5.72;;;;;;;21.24;81.07;99162.19;1683662;84;21602;-77
2021/07/06 01:08:59;;;;;;;6.05;5.35;;;;;;;21.11;81.86;99163.75;1680155;85;20967;-76
2021/07/06 01:11:26;;;;;;;6.15;4.15;;;;;;;21.13;81.31;99165.06;1678294;85;21142;-77
2021/07/06 01:13:53;;;;;;;5.75;4.80;;;;;;;21.15;81.23;99168.25;1675856;85;20983;-77
2021/07/06 01:16:20;;;;;;;7.62;4.90;;;;;;;21.14;81.38;99169.97;1675984;85;20952;-75
2021/07/06 01:18:46;;;;;;;12.65;5.05;;;;;;;21.16;81.37;99170.42;1680669;84;21013;-75
2021/07/06 01:21:14;;;;;;;4.80;4.28;;;;;;;21.16;81.34;99176.70;1691926;84;20984;-76
2021/07/06 01:23:41;;;;;;;7.58;4.97;;;;;;;21.18;81.24;99180.48;1692099;84;21135;-77
2021/07/06 01:26:08;;;;;;;6.28;5.10;;;;;;;21.08;81.75;99177.53;1682853;84;20951;-77
2021/07/06 01:28:36;;;;;;;7.72;4.45;;;;;;;20.99;82.35;99190.46;1691913;84;21032;-77
2021/07/06 01:31:05;;;;;;;6.00;5.40;;;;;;;20.84;83.16;99190.45;1691993;84;21099;-76
2021/07/06 01:33:33;;;;;;;11.35;4.78;;;;;;;20.79;83.53;99197.48;1690359;84;21001;-77
2021/07/06 01:36:07;;;;;;;5.87;5.10;;;;;;;20.66;84.12;99198.52;1674676;85;21068;-76
2021/07/06 01:38:31;;;;;;;9.10;5.72;;;;;;;20.58;84.70;99197.96;1676462;85;20947;-78
2021/07/06 01:41:00;;;;;;;6.42;4.95;;;;;;;20.61;85.39;99200.06;1673001;85;21023;-76
2021/07/06 01:43:28;;;;;;;15.60;5.12;;;;;;;20.63;85.22;99205.17;1674538;85;21024;-76
2021/07/06 01:45:55;;;;;;;6.28;5.30;;;;;;;20.60;84.80;99198.45;1678040;85;21016;-78
2021/07/06 01:48:22;;;;;;;6.47;5.83;;;;;;;20.65;84.62;99199.63;1680617;85;21123;-77
2021/07/06 01:50:49;;;;;;;5.25;4.05;;;;;;;20.61;84.53;99195.96;1679855;85;21022;-76
2021/07/06 01:53:22;;;;;;;7.53;4.67;;;;;;;20.64;84.31;99199.95;1679533;85;21086;-77
2021/07/06 01:55:50;;;;;;;5.37;4.87;;;;;;;20.66;84.37;99208.64;1677739;84;21582;-76
2021/07/06 01:58:18;;;;;;;6.70;4.87;;;;;;;20.58;84.70;99211.62;1675434;85;21563;-76
2021/07/06 02:00:56;;;;;;;6.15;5.45;;;;;;;20.59;85.17;99204.23;1674882;85;21093;-76
2021/07/06 02:03:23;;;;;;;10.35;4.87;;;;;;;20.58;85.09;99210.26;1672261;85;21087;-76
2021/07/06 02:05:57;;;;;;;5.85;5.25;;;;;;;20.62;84.74;99213.97;1659905;86;20982;-76
2021/07/06 02:08:20;;;;;;;8.28;4.90;;;;;;;20.67;84.27;99226.64;1661993;86;20993;-76
2021/07/06 02:10:49;;;;;;;14.18;6.85;;;;;;;20.73;84.17;99217.92;1667504;86;21050;-76
2021/07/06 02:13:22;;;;;;;6.17;4.55;;;;;;;20.78;83.88;99217.73;1667517;86;21855;-76
2021/07/06 02:15:52;;;;;;;7.60;4.80;;;;;;;20.84;83.65;99221.09;1657999;86;21007;-77
2021/07/06 02:18:21;;;;;;;12.18;4.67;;;;;;;20.94;83.50;99224.02;1648171;87;21177;-76
2021/07/06 02:20:50;;;;;;;5.65;4.72;;;;;;;21.03;82.98;99229.68;1648114;87;21039;-77
2021/07/06 02:23:17;;;;;;;9.48;5.20;;;;;;;21.11;82.42;99226.09;1648286;87;20995;-77
2021/07/06 02:25:45;;;;;;;9.95;5.00;;;;;;;21.13;81.90;99232.07;1649990;86;20991;-78
2021/07/06 02:28:12;;;;;;;5.17;4.20;;;;;;;21.15;81.65;99235.85;1649310;86;21126;-77
2021/07/06 02:30:39;;;;;;;6.62;5.40;;;;;;;21.15;81.40;99239.95;1665987;86;21039;-78
2021/07/06 02:33:06;;;;;;;7.97;5.25;;;;;;;21.10;81.59;99240.88;1662013;86;21061;-75
2021/07/06 02:35:33;;;;;;;5.53;5.03;;;;;;;21.02;81.65;99249.14;1651063;86;21530;-76
2021/07/06 02:38:01;;;;;;;5.70;4.67;;;;;;;20.97;81.89;99249.32;1651829;86;21161;-76
2021/07/06 02:40:28;;;;;;;7.00;4.65;;;;;;;20.93;82.04;99243.72;1648747;86;20955;-77
2021/07/06 02:42:56;;;;;;;5.33;4.65;;;;;;;20.91;82.38;99243.23;1648204;87;21031;-77
2021/07/06 02:45:23;;;;;;;5.22;4.72;;;;;;;20.96;82.42;99242.27;1648186;87;21012;-77
2021/07/06 02:47:51;;;;;;;8.00;4.53;;;;;;;20.97;82.40;99239.19;1649598;86;21124;-77
2021/07/06 02:50:21;;;;;;;5.22;4.72;;;;;;;21.06;82.35;99244.05;1651254;85;20976;-76
2021/07/06 02:52:48;;;;;;;7.85;4.37;;;;;;;21.16;81.90;99243.70;1655308;86;20980;-76
2021/07/06 02:55:16;;;;;;;5.60;4.33;;;;;;;21.24;81.26;99245.61;1661158;86;21067;-77
2021/07/06 02:57:43;;;;;;;7.03;4.45;;;;;;;21.25;80.94;99245.02;1635666;86;21071;-76
2021/07/06 03:00:24;;;;;;;5.37;4.87;;;;;;;21.25;81.01;99253.22;1624128;88;21027;-77
2021/07/06 03:03:08;;;;;;;4.67;4.28;;;;;;;21.28;80.75;99249.84;1635571;87;20980;-76
2021/07/06 03:05:36;;;;;;;7.10;4.75;;;;;;;21.33;80.53;99252.39;1672212;85;20971;-76
2021/07/06 03:08:04;;;;;;;6.90;5.45;;;;;;;21.29;80.42;99252.23;1672128;85;21055;-77
2021/07/06 03:10:34;;;;;;;6.25;4.60;;;;;;;21.30;80.56;99256.58;1654851;86;21078;-76
2021/07/06 03:13:00;;;;;;;6.65;5.20;;;;;;;21.34;80.50;99256.73;1654252;86;21526;-77
2021/07/06 03:15:29;;;;;;;9.43;5.62;;;;;;;21.35;80.74;99260.24;1646298;86;21162;-79
2021/07/06 03:17:57;;;;;;;5.62;4.55;;;;;;;21.42;80.49;99257.80;1640842;86;21120;-76
2021/07/06 03:20:25;;;;;;;8.85;5.70;;;;;;;21.45;79.88;99259.86;1655426;86;21571;-76
2021/07/06 03:22:52;;;;;;;6.08;5.25;;;;;;;21.42;79.90;99259.97;1654921;86;21035;-75
2021/07/06 03:25:21;;;;;;;5.78;5.00;;;;;;;21.41;79.99;99260.30;1654915;86;21537;-76
2021/07/06 03:27:48;;;;;;;7.17;5.37;;;;;;;21.41;80.33;99269.87;1654516;86;21169;-77
2021/07/06 03:30:21;;;;;;;6.30;5.70;;;;;;;21.45;80.17;99263.97;1651370;86;20994;-76
2021/07/06 03:32:50;;;;;;;5.15;4.75;;;;;;;21.50;79.88;99262.41;1660745;86;21541;-77
2021/07/06 03:35:17;;;;;;;6.08;4.53;;;;;;;21.56;79.58;99276.14;1634612;87;21054;-77
2021/07/06 03:37:44;;;;;;;10.05;5.78;;;;;;;21.57;79.48;99277.75;1640238;86;21644;-78
2021/07/06 03:40:13;;;;;;;5.60;5.10;;;;;;;21.55;79.56;99281.37;1629588;87;21065;-77
2021/07/06 03:42:40;;;;;;;5.90;5.40;;;;;;;21.56;79.67;99282.41;1663800;86;21103;-77
2021/07/06 03:45:09;;;;;;;5.70;4.22;;;;;;;21.58;79.62;99280.72;1651432;85;21061;-77
2021/07/06 03:47:37;;;;;;;10.05;6.45;;;;;;;21.63;79.68;99288.14;1634159;86;21093;-77
2021/07/06 03:50:05;;;;;;;7.30;5.45;;;;;;;21.67;79.21;99285.57;1654852;86;21074;-77
2021/07/06 03:52:32;;;;;;;6.83;5.90;;;;;;;21.70;79.13;99281.59;1651757;86;21162;-77
2021/07/06 03:54:59;;;;;;;11.78;5.67;;;;;;;21.72;79.08;99276.59;1652172;86;21031;-77
2021/07/06 03:57:28;;;;;;;11.25;6.45;;;;;;;21.75;78.91;99278.66;1669896;85;21654;-77
2021/07/06 04:00:03;;;;;;;7.70;5.25;;;;;;;21.74;79.11;99286.63;1682960;85;21024;-77
2021/07/06 04:02:31;;;;;;;10.30;5.00;;;;;;;21.80;78.98;99283.69;1682886;84;21515;-77
2021/07/06 04:04:58;;;;;;;9.05;8.25;;;;;;;21.80;78.81;99286.43;1670449;84;21072;-80
2021/07/06 04:07:25;;;;;;;9.45;7.12;;;;;;;21.77;78.91;99293.39;1658844;86;21534;-79
2021/07/06 04:09:52;;;;;;;11.10;6.53;;;;;;;21.80;78.87;99286.43;1679746;85;21003;-79
2021/07/06 04:12:19;;;;;;;12.70;6.90;;;;;;;21.80;78.90;99290.53;1679459;85;21062;-78
2021/07/06 04:14:46;;;;;;;6.40;5.80;;;;;;;21.79;78.96;99302.05;1679905;85;21043;-77
2021/07/06 04:17:14;;;;;;;8.23;6.83;;;;;;;21.82;78.95;99301.97;1681800;84;21163;-77
2021/07/06 04:19:42;;;;;;;8.08;6.58;;;;;;;21.83;78.99;99286.56;1682384;84;21147;-77
2021/07/06 04:22:11;;;;;;;6.78;6.17;;;;;;;21.90;79.04;99288.20;1680440;85;20942;-77
2021/07/06 04:24:37;;;;;;;7.62;6.28;;;;;;;21.98;78.80;99283.25;1666417;85;21527;-77
2021/07/06 04:27:06;;;;;;;7.37;6.00;;;;;;;22.01;78.43;99286.70;1675190;84;21005;-77
2021/07/06 04:29:33;;;;;;;8.90;6.03;;;;;;;22.06;78.41;99295.28;1692326;84;21134;-77
2021/07/06 04:32:00;;;;;;;6.87;5.95;;;;;;;22.09;78.35;99291.30;1691887;84;21571;-77
2021/07/06 04:34:27;;;;;;;6.33;5.83;;;;;;;22.10;78.30;99301.69;1692238;84;21027;-77
2021/07/06 04:36:55;;;;;;;9.38;6.53;;;;;;;22.12;78.37;99297.46;1687131;84;21800;-76
2021/07/06 04:39:23;;;;;;;8.98;6.03;;;;;;;22.12;78.29;99296.09;1680168;85;21091;-78
2021/07/06 04:41:50;;;;;;;8.83;6.10;;;;;;;22.11;78.34;99304.08;1680218;85;21220;-77
2021/07/06 04:44:17;;;;;;;10.78;5.60;;;;;;;22.12;78.59;99301.58;1680311;85;21487;-77
2021/07/06 04:46:43;;;;;;;6.33;5.83;;;;;;;22.15;78.61;99305.03;1679904;85;21063;-76
2021/07/06 04:49:10;;;;;;;8.90;6.00;;;;;;;22.17;78.59;99308.22;1680107;85;21540;-77
2021/07/06 04:51:38;;;;;;;10.53;5.80;;;;;;;22.23;78.59;99303.91;1679927;85;21024;-75
2021/07/06 04:54:05;;;;;;;7.42;6.70;;;;;;;22.30;78.34;99307.69;1680115;85;21204;-76
2021/07/06 04:56:32;;;;;;;8.05;6.62;;;;;;;22.35;78.24;99308.08;1684644;84;20944;-75
2021/07/06 04:58:59;;;;;;;14.05;7.12;;;;;;;22.38;78.09;99309.57;1694219;84;21100;-78
2021/07/06 05:01:26;;;;;;;6.85;6.25;;;;;;;22.43;78.15;99304.45;1668282;85;21049;-77
2021/07/06 05:03:54;;;;;;;15.20;6.85;;;;;;;22.51;77.91;99308.46;1679656;85;20994;-75
2021/07/06 05:06:21;;;;;;;7.45;6.72;;;;;;;22.61;77.64;99308.61;1682627;84;21549;-76
2021/07/06 05:08:48;;;;;;;11.60;8.03;;;;;;;22.57;77.36;99307.69;1680548;84;21074;-75
2021/07/06 05:11:16;;;;;;;8.03;7.08;;;;;;;22.53;77.69;99314.42;1681677;85;21079;-77
2021/07/06 05:13:44;;;;;;;9.63;6.72;;;;;;;22.52;77.72;99312.81;1679792;85;21515;-76
2021/07/06 05:16:11;;;;;;;9.18;7.60;;;;;;;22.55;78.03;99307.20;1681963;84;21583;-78
2021/07/06 05:18:38;;;;;;;6.62;5.78;;;;;;;22.61;77.66;99305.30;1686013;84;21187;-75
2021/07/06 05:21:05;;;;;;;10.58;7.10;;;;;;;22.71;77.83;99306.03;1679704;85;21264;-77
2021/07/06 05:23:32;;;;;;;11.70;6.15;;;;;;;22.84;77.40;99306.28;1679617;85;20946;-78
2021/07/06 05:26:01;;;;;;;10.15;5.83;;;;;;;22.97;76.74;99309.29;1681025;84;20994;-78
2021/07/06 05:28:28;;;;;;;7.92;6.15;;;;;;;23.07;76.02;99306.67;1685256;84;21024;-79
2021/07/06 05:30:56;;;;;;;7.47;6.70;;;;;;;23.13;75.80;99302.54;1682335;84;21164;-78
2021/07/06 05:33:23;;;;;;;7.70;6.30;;;;;;;23.22;75.53;99299.91;1654440;85;21518;-78
2021/07/06 05:35:49;;;;;;;10.15;7.72;;;;;;;23.30;75.25;99298.22;1683294;85;21015;-78
2021/07/06 05:38:16;;;;;;;7.25;6.55;;;;;;;23.37;75.14;99301.97;1681643;84;21046;-79
2021/07/06 05:40:43;;;;;;;8.63;6.80;;;;;;;23.40;74.84;99301.88;1687664;84;20988;-78
2021/07/06 05:43:12;;;;;;;8.65;6.28;;;;;;;23.45;74.68;99304.42;1688765;84;21053;-77
2021/07/06 05:45:39;;;;;;;10.70;6.62;;;;;;;23.52;74.49;99312.05;1686314;84;21475;-77
2021/07/06 05:48:06;;;;;;;7.55;6.85;;;;;;;23.58;74.17;99301.08;1683494;84;21063;-76
2021/07/06 05:50:33;;;;;;;9.65;7.15;;;;;;;23.62;74.31;99302.78;1694775;83;21151;-74
2021/07/06 05:52:59;;;;;;;9.83;6.70;;;;;;;23.63;73.95;99303.59;1686232;84;21774;-76
2021/07/06 05:55:26;;;;;;;8.23;7.25;;;;;;;23.62;74.20;99304.16;1679651;85;21077;-75
2021/07/06 05:57:53;;;;;;;11.08;7.12;;;;;;;23.68;74.22;99313.77;1679777;84;21087;-79
2021/07/06 06:00:20;;;;;;;10.58;7.37;;;;;;;23.72;74.03;99311.12;1679432;84;21031;-77
2021/07/06 06:02:48;;;;;;;11.53;7.40;;;;;;;23.74;73.86;99310.98;1680919;84;21092;-77
2021/07/06 06:05:15;;;;;;;7.12;6.53;;;;;;;23.80;73.79;99319.22;1687222;84;21613;-79
2021/07/06 06:07:42;;;;;;;14.53;7.95;;;;;;;23.86;73.69;99319.79;1683942;85;21118;-78
2021/07/06 06:10:11;;;;;;;8.75;7.80;;;;;;;23.86;73.57;99317.84;1686010;84;21193;-79
2021/07/06 06:12:38;;;;;;;11.85;6.92;;;;;;;23.88;73.66;99318.88;1679830;85;20958;-77
2021/07/06 06:15:07;;;;;;;7.75;7.05;;;;;;;23.89;73.78;99326.75;1679681;85;20999;-79
2021/07/06 06:17:34;;;;;;;10.63;6.35;;;;;;;23.89;73.88;99317.70;1679597;85;21527;-78
2021/07/06 06:20:03;;;;;;;14.25;7.47;;;;;;;23.96;73.96;99324.80;1689848;84;21132;-79
2021/07/06 06:22:30;;;;;;;8.13;7.30;;;;;;;24.00;74.22;99320.20;1691866;84;21035;-81
2021/07/06 06:24:57;;;;;;;8.45;7.65;;;;;;;24.00;74.37;99322.95;1691846;84;21599;-80
2021/07/06 06:27:24;;;;;;;8.20;7.40;;;;;;;23.99;74.36;99326.05;1691995;84;21019;-80
2021/07/06 06:29:51;;;;;;;9.98;8.63;;;;;;;23.99;74.43;99325.47;1684971;84;21058;-79
2021/07/06 06:32:18;;;;;;;15.90;7.72;;;;;;;24.06;74.12;99333.13;1681520;85;21151;-81
2021/07/06 06:34:45;;;;;;;8.25;7.45;;;;;;;24.12;73.98;99334.50;1679689;85;21274;-81
2021/07/06 06:37:12;;;;;;;12.18;7.92;;;;;;;24.21;73.62;99342.86;1679672;85;21051;-80
2021/07/06 06:39:40;;;;;;;11.35;8.73;;;;;;;24.28;73.19;99340.30;1680143;84;21061;-80
2021/07/06 06:42:07;;;;;;;8.60;7.33;;;;;;;24.32;73.17;99335.70;1690096;84;21071;-80
2021/07/06 06:44:34;;;;;;;9.05;7.97;;;;;;;24.41;73.25;99335.57;1691887;84;21506;-78
2021/07/06 06:47:01;;;;;;;8.85;7.95;;;;;;;24.53;72.80;99338.25;1689643;84;21506;-79
2021/07/06 06:49:28;;;;;;;17.73;8.05;;;;;;;24.61;72.42;99345.53;1682286;84;21049;-79
2021/07/06 06:51:54;;;;;;;11.43;7.12;;;;;;;24.71;72.36;99334.03;1682921;85;21575;-78
2021/07/06 06:54:21;;;;;;;12.10;8.00;;;;;;;24.81;72.16;99336.03;1682724;85;21535;-79
2021/07/06 06:56:49;;;;;;;8.65;7.72;;;;;;;24.90;71.33;99334.75;1680566;85;21147;-78
2021/07/06 06:59:16;;;;;;;9.95;8.23;;;;;;;24.94;70.44;99341.73;1679848;84;20998;-76
2021/07/06 07:01:44;;;;;;;12.13;7.62;;;;;;;24.94;70.58;99339.77;1679815;85;21007;-81
2021/07/06 07:04:12;;;;;;;11.45;7.72;;;;;;;24.92;70.52;99336.58;1679711;85;21086;-76
2021/07/06 07:06:39;;;;;;;9.33;7.45;;;;;;;24.91;70.38;99340.48;1655029;85;21037;-78
2021/07/06 07:09:09;;;;;;;8.23;7.37;;;;;;;24.88;70.65;99341.77;1657862;86;21856;-79
2021/07/06 07:11:38;;;;;;;10.35;7.10;;;;;;;24.87;70.61;99339.59;1656261;86;20998;-76
2021/07/06 07:14:05;;;;;;;10.55;6.80;;;;;;;24.87;70.43;99341.54;1653787;86;21036;-77
2021/07/06 07:16:31;;;;;;;7.90;7.20;;;;;;;24.85;70.75;99333.59;1649614;86;21028;-76
2021/07/06 07:18:59;;;;;;;14.60;8.03;;;;;;;24.78;70.95;99332.63;1651794;86;21019;-76
2021/07/06 07:21:26;;;;;;;7.53;6.75;;;;;;;24.73;71.32;99333.11;1650648;86;21159;-78
2021/07/06 07:23:53;;;;;;;9.43;8.35;;;;;;;24.77;71.79;99338.70;1644003;87;21015;-78
2021/07/06 07:26:20;;;;;;;12.80;6.50;;;;;;;24.86;71.37;99335.78;1644015;87;21004;-77
2021/07/06 07:28:46;;;;;;;9.90;7.40;;;;;;;24.90;71.19;99341.62;1644708;86;21060;-77
2021/07/06 07:31:13;;;;;;;9.20;6.80;;;;;;;24.93;71.18;99338.76;1656679;86;21060;-78
2021/07/06 07:33:40;;;;;;;12.78;8.63;;;;;;;25.03;70.91;99337.66;1651956;87;21512;-77
2021/07/06 07:36:09;;;;;;;19.07;7.17;;;;;;;25.10;70.94;99332.33;1651171;87;21015;-76
2021/07/06 07:38:36;;;;;;;15.15;7.70;;;;;;;25.15;70.44;99332.63;1651175;86;21022;-77
2021/07/06 07:41:03;;;;;;;9.93;7.58;;;;;;;25.16;69.31;99347.42;1654372;86;21523;-82
2021/07/06 07:43:31;;;;;;;9.95;8.95;;;;;;;25.16;69.35;99346.05;1653839;85;21554;-80
2021/07/06 07:45:58;;;;;;;7.53;6.83;;;;;;;25.18;69.63;99347.05;1653374;86;21519;-84
2021/07/06 07:48:25;;;;;;;8.58;6.35;;;;;;;25.21;69.87;99343.61;1651330;87;21577;-83
2021/07/06 07:50:52;;;;;;;7.40;6.37;;;;;;;25.24;69.02;99347.59;1661652;86;21044;-80
2021/07/06 07:53:19;;;;;;;9.50;7.40;;;;;;;25.29;68.93;99350.88;1662902;86;21083;-81
2021/07/06 07:55:46;;;;;;;8.35;7.65;;;;;;;25.34;68.99;99354.74;1653303;86;21074;-80
2021/07/06 07:58:13;;;;;;;10.72;6.85;;;;;;;25.39;68.87;99351.72;1656944;86;21533;-79
2021/07/06 08:00:40;;;;;;;6.60;6.05;;;;;;;25.46;68.76;99349.73;1637676;86;21034;-81
2021/07/06 08:03:07;;;;;;;10.68;7.15;;;;;;;25.48;68.46;99353.70;1662499;86;21071;-81
2021/07/06 08:05:35;;;;;;;11.35;6.45;;;;;;;25.51;68.09;99351.63;1666793;85;21585;-83
2021/07/06 08:55:43;;;;;;;6.90;6.20;;;;;;;26.46;65.02;99359.08;1774349;79;22796;-76
2021/07/06 08:58:10;;;;;;;8.10;5.35;;;;;;;26.53;64.86;99361.97;1734517;82;21068;-75
2021/07/06 09:00:36;;;;;;;9.03;6.10;;;;;;;26.63;64.58;99364.14;1727696;82;21199;-75
2021/07/06 09:03:07;;;;;;;6.58;5.90;;;;;;;26.69;64.37;99361.89;1728018;83;21545;-76
2021/07/06 09:05:34;;;;;;;6.58;5.75;;;;;;;26.70;64.38;99372.58;1707857;82;21024;-75
2021/07/06 09:08:01;;;;;;;7.40;5.65;;;;;;;26.73;63.37;99367.69;1731449;82;20964;-77
2021/07/06 09:10:35;;;;;;;7.85;7.05;;;;;;;26.81;63.37;99364.50;1730916;82;21057;-76
2021/07/06 09:13:04;;;;;;;7.55;6.25;;;;;;;26.89;63.20;99368.44;1703450;82;21150;-76
2021/07/06 09:15:32;;;;;;;5.60;5.08;;;;;;;26.98;63.10;99366.01;1700309;82;21536;-76
2021/07/06 09:18:13;;;;;;;5.60;5.10;;;;;;;27.06;61.39;99369.10;1716743;82;20920;-76
2021/07/06 09:20:41;;;;;;;5.00;4.50;;;;;;;27.08;61.06;99376.45;1701155;83;20947;-76
2021/07/06 09:23:34;;;;;;;6.33;5.75;;;;;;;27.10;61.02;99382.41;1714899;83;21139;-77
2021/07/06 09:26:12;;;;;;;6.85;6.15;;;;;;;26.99;61.56;99376.69;1717581;83;21044;-78
2021/07/06 09:42:17;;;;;;;17.00;6.70;;;;;;;27.03;62.08;99378.93;1751428;77;26619;-87
2021/07/06 09:44:45;;;;;;;7.05;6.37;;;;;;;26.89;62.57;99380.85;1725424;83;20989;-85
2021/07/06 09:47:14;;;;;;;6.33;5.75;;;;;;;26.89;62.72;99384.19;1735839;81;21078;-88
2021/07/06 09:49:56;;;;;;;11.60;6.28;;;;;;;26.91;62.66;99370.03;1699693;83;20965;-91
2021/07/06 09:52:22;;;;;;;7.35;6.75;;;;;;;27.00;61.68;99384.40;1722528;82;21024;-91
2021/07/06 09:54:54;;;;;;;6.85;6.15;;;;;;;26.95;62.07;99368.13;1709537;83;20976;-86
2021/07/06 09:57:25;;;;;;;6.67;6.08;;;;;;;27.01;62.31;99377.69;1689734;82;21033;-81
2021/07/06 10:00:12;;;;;;;9.30;5.90;;;;;;;27.14;62.30;99379.93;1712802;83;21029;-81
2021/07/06 10:02:41;;;;;;;7.22;6.10;;;;;;;27.30;61.46;99379.78;1715760;83;21430;-80
2021/07/06 10:05:10;;;;;;;10.35;6.87;;;;;;;27.37;61.47;99384.06;1716400;83;20994;-84
2021/07/06 10:07:39;;;;;;;9.50;6.08;;;;;;;27.38;61.23;99380.14;1715492;83;21051;-84
2021/07/06 10:10:09;;;;;;;10.28;5.80;;;;;;;27.27;61.03;99383.30;1715693;82;21460;-82
2021/07/06 10:12:37;;;;;;;6.92;6.05;;;;;;;27.24;60.53;99382.66;1688897;83;21059;-81
2021/07/06 10:15:09;;;;;;;8.08;5.33;;;;;;;27.24;60.84;99382.05;1714917;83;21105;-83
2021/07/06 10:17:38;;;;;;;8.20;5.47;;;;;;;27.33;60.47;99387.35;1715472;83;21061;-81
2021/07/06 10:20:12;;;;;;;6.87;5.95;;;;;;;27.42;61.19;99382.95;1714994;83;21019;-78
2021/07/06 10:22:39;;;;;;;9.00;7.00;;;;;;;27.46;60.25;99375.52;1707100;84;21088;-76
2021/07/06 10:25:10;;;;;;;6.53;5.25;;;;;;;27.42;60.16;99380.19;1705242;82;21062;-77
2021/07/06 10:27:41;;;;;;;5.87;5.30;;;;;;;27.38;59.97;99380.14;1717801;82;21593;-76
2021/07/06 10:30:15;;;;;;;9.45;8.23;;;;;;;27.39;60.44;99387.23;1663315;83;21124;-81
2021/07/06 10:32:51;;;;;;;5.97;5.33;;;;;;;27.46;60.38;99381.84;1703583;83;20968;-84
2021/07/06 10:35:42;;;;;;;6.30;5.70;;;;;;;27.54;60.37;99386.92;1700143;83;21026;-78
2021/07/06 10:38:32;;;;;;;6.12;5.53;;;;;;;27.45;61.37;99385.77;1692990;83;21788;-77
2021/07/06 10:41:12;;;;;;;6.72;5.42;;;;;;;27.50;61.07;99381.34;1695612;83;21062;-79
2021/07/06 10:43:47;;;;;;;8.85;5.87;;;;;;;27.51;60.85;99390.44;1714260;83;20959;-77
2021/07/06 10:46:29;;;;;;;5.97;5.37;;;;;;;27.61;59.92;99389.81;1713735;83;21026;-78
2021/07/06 10:49:18;;;;;;;8.45;5.97;;;;;;;27.70;59.70;99385.61;1716025;83;21421;-76
2021/07/06 10:51:49;;;;;;;12.37;5.40;;;;;;;27.77;60.12;99387.67;1691369;83;21061;-77
2021/07/06 10:54:38;;;;;;;13.05;5.75;;;;;;;27.86;59.38;99396.52;1714702;83;20995;-78
2021/07/06 10:57:13;;;;;;;7.45;4.83;;;;;;;27.85;59.28;99398.27;1713990;83;21027;-78
2021/07/06 10:59:40;;;;;;;12.65;4.72;;;;;;;27.91;59.10;99398.97;1714798;83;20986;-79
2021/07/06 11:02:27;;;;;;;6.58;5.33;;;;;;;27.95;58.29;99404.55;1690200;83;21042;-77
2021/07/06 11:04:56;;;;;;;7.05;5.70;;;;;;;28.02;57.98;99401.28;1714937;83;21203;-77
2021/07/06 11:07:38;;;;;;;6.87;4.95;;;;;;;28.15;58.27;99396.38;1690760;83;21091;-77
2021/07/06 11:10:08;;;;;;;6.40;5.22;;;;;;;28.21;58.36;99401.77;1686007;85;21077;-79
2021/07/06 11:12:44;;;;;;;8.30;5.75;;;;;;;28.20;57.96;99398.82;1686095;85;21055;-79
2021/07/06 11:15:19;;;;;;;6.00;5.42;;;;;;;28.21;58.10;99400.39;1686146;85;21063;-78
2021/07/06 11:41:20;;;;;;;6.85;5.25;;;;;;;28.61;55.99;99413.56;1870441;76;22581;-72
2021/07/06 11:43:48;;;;;;;6.17;5.28;;;;;;;28.68;55.54;99407.33;1826698;77;20976;-71
2021/07/06 11:46:16;;;;;;;6.05;4.90;;;;;;;28.85;55.03;99413.67;1826748;78;21858;-70
2021/07/06 11:48:44;;;;;;;6.50;4.87;;;;;;;28.94;54.34;99416.35;1826701;78;20968;-71
2021/07/06 11:51:14;;;;;;;6.72;5.00;;;;;;;29.02;54.84;99420.78;1806142;78;20973;-72
2021/07/06 11:53:46;;;;;;;5.90;4.65;;;;;;;29.17;54.68;99426.47;1790228;80;20951;-70
2021/07/06 11:56:13;;;;;;;7.33;4.62;;;;;;;29.27;52.89;99421.63;1790588;80;21531;-74
2021/07/06 11:58:40;;;;;;;9.15;6.37;;;;;;;29.31;52.77;99418.32;1790385;80;21065;-70
2021/07/06 12:01:10;;;;;;;7.03;4.20;;;;;;;29.29;53.24;99420.08;1790123;80;20908;-69
2021/07/06 12:03:37;;;;;;;11.03;8.53;;;;;;;29.29;53.60;99419.28;1790257;79;20919;-72
2021/07/06 12:06:12;;;;;;;5.37;4.97;;;;;;;29.21;54.12;99420.40;1790183;79;20966;-70
2021/07/06 12:08:43;;;;;;;10.70;5.15;;;;;;;29.17;54.32;99429.23;1759428;80;20983;-71
2021/07/06 12:11:16;;;;;;;6.22;4.87;;;;;;;29.20;53.00;99434.03;1759393;80;21256;-71
2021/07/06 12:13:47;;;;;;;7.30;5.33;;;;;;;29.14;53.38;99425.27;1759282;80;20888;-72
2021/07/06 12:16:18;;;;;;;5.20;4.15;;;;;;;29.20;52.89;99422.37;1790480;80;20963;-72
2021/07/06 12:18:53;;;;;;;5.47;4.05;;;;;;;29.31;52.34;99433.56;1790170;79;21540;-70
2021/07/06 12:21:24;;;;;;;6.15;4.10;;;;;;;29.25;52.55;99420.64;1759509;80;21008;-69
2021/07/06 12:23:52;;;;;;;6.53;4.67;;;;;;;29.23;53.11;99411.09;1790289;79;21146;-70
2021/07/06 12:26:20;;;;;;;5.75;5.15;;;;;;;29.29;52.86;99420.66;1790151;80;20927;-72
2021/07/06 12:28:47;;;;;;;7.10;4.35;;;;;;;29.28;53.29;99417.67;1758594;80;21054;-70
2021/07/06 12:31:35;;;;;;;4.17;3.83;;;;;;;29.26;53.91;99416.66;1750828;80;21531;-72
2021/07/06 12:34:07;;;;;;;6.15;5.15;;;;;;;29.29;53.68;99415.92;1762732;81;21069;-71
2021/07/06 12:36:41;;;;;;;5.93;5.33;;;;;;;29.37;53.71;99418.19;1763224;81;21127;-73
2021/07/06 12:39:32;;;;;;;6.22;4.60;;;;;;;29.38;53.96;99415.63;1762895;81;20954;-71
2021/07/06 12:42:08;;;;;;;27.90;6.83;;;;;;;29.37;54.05;99414.83;1762722;81;21519;-69
2021/07/06 12:44:44;;;;;;;9.98;4.92;;;;;;;29.39;53.84;99415.26;1762670;81;21007;-71
2021/07/06 12:47:31;;;;;;;7.72;4.97;;;;;;;29.46;53.44;99412.53;1762867;81;21071;-70
2021/07/06 12:50:19;;;;;;;5.85;4.65;;;;;;;29.38;53.75;99413.66;1762638;81;21266;-70
2021/07/06 12:52:49;;;;;;;7.55;4.35;;;;;;;29.36;54.32;99416.59;1732000;81;21050;-70
2021/07/06 12:55:25;;;;;;;8.58;4.45;;;;;;;29.56;53.39;99412.41;1762187;81;21641;-70
2021/07/06 12:58:08;;;;;;;8.18;4.67;;;;;;;29.67;53.29;99420.23;1762284;81;20979;-70
2021/07/06 13:00:37;;;;;;;11.88;4.92;;;;;;;29.78;52.90;99414.78;1730802;81;21020;-70
2021/07/06 13:03:08;;;;;;;5.80;4.67;;;;;;;29.98;52.79;99402.25;1762727;81;21757;-73
2021/07/06 13:05:41;;;;;;;9.00;5.22;;;;;;;30.20;51.94;99415.67;1731896;81;20988;-71